sensor_id;sensor_type;location;lat;lon;timestamp;temperature;humidity
18948;DHT22;9607;51.600;7.558;2023-03-11T00:00:40;1.10;99.90
18948;DHT22;9607;51.600;7.558;2023-03-11T00:03:08;1.10;99.90
18948;DHT22;9607;51.600;7.558;2023-03-11T00:05:37;1.10;99.90
18948;DHT22;9607;51.600;7.558;2023-03-11T00:08:06;1.00;99.90
18948;DHT22;9607;51.600;7.558;2023-03-11T00:10:35;1.00;99.90
18948;DHT22;9607;51.600;7.558;2023-03-11T00:13:04;1.00;99.90
18948;DHT22;9607;51.600;7.558;2023-03-11T00:15:33;1.00;99.90
18948;DHT22;9607;51.600;7.558;2023-03-11T00:18:00;1.00;99.90
18948;DHT22;9607;51.600;7.558;2023-03-11T00:20:29;1.00;99.90
18948;DHT22;9607;51.600;7.558;2023-03-11T00:22:56;1.00;99.90
18948;DHT22;9607;51.600;7.558;2023-03-11T00:25:25;1.00;99.90
18948;DHT22;9607;51.600;7.558;2023-03-11T00:27:52;1.00;99.90
18948;DHT22;9607;51.600;7.558;2023-03-11T00:30:20;1.00;99.90
18948;DHT22;9607;51.600;7.558;2023-03-11T00:32:50;1.00;99.90
18948;DHT22;9607;51.600;7.558;2023-03-11T00:35:20;1.00;99.90
18948;DHT22;9607;51.600;7.558;2023-03-11T00:37:47;1.00;99.90
18948;DHT22;9607;51.600;7.558;2023-03-11T00:40:15;1.00;99.90
18948;DHT22;9607;51.600;7.558;2023-03-11T00:42:42;1.10;99.90
18948;DHT22;9607;51.600;7.558;2023-03-11T00:45:09;1.10;99.90
18948;DHT22;9607;51.600;7.558;2023-03-11T00:47:36;1.10;99.90
18948;DHT22;9607;51.600;7.558;2023-03-11T00:50:07;1.10;99.90
18948;DHT22;9607;51.600;7.558;2023-03-11T00:52:36;1.10;99.90
18948;DHT22;9607;51.600;7.558;2023-03-11T00:55:04;1.10;99.90
18948;DHT22;9607;51.600;7.558;2023-03-11T00:57:31;1.10;99.90
18948;DHT22;9607;51.600;7.558;2023-03-11T00:59:58;1.10;99.90
18948;DHT22;9607;51.600;7.558;2023-03-11T01:02:25;1.10;99.90
18948;DHT22;9607;51.600;7.558;2023-03-11T01:04:52;1.10;99.90
18948;DHT22;9607;51.600;7.558;2023-03-11T01:07:21;1.10;99.90
18948;DHT22;9607;51.600;7.558;2023-03-11T01:09:48;1.10;99.90
18948;DHT22;9607;51.600;7.558;2023-03-11T01:12:15;1.10;99.90
18948;DHT22;9607;51.600;7.558;2023-03-11T01:14:42;1.10;99.90
18948;DHT22;9607;51.600;7.558;2023-03-11T01:17:08;1.10;99.90
18948;DHT22;9607;51.600;7.558;2023-03-11T01:19:35;1.10;99.90
18948;DHT22;9607;51.600;7.558;2023-03-11T01:22:02;1.10;99.90
18948;DHT22;9607;51.600;7.558;2023-03-11T01:24:31;1.00;99.90
18948;DHT22;9607;51.600;7.558;2023-03-11T01:26:57;1.00;99.90
18948;DHT22;9607;51.600;7.558;2023-03-11T01:29:24;1.00;99.90
18948;DHT22;9607;51.600;7.558;2023-03-11T01:31:51;1.00;99.90
18948;DHT22;9607;51.600;7.558;2023-03-11T01:34:18;1.00;99.90
18948;DHT22;9607;51.600;7.558;2023-03-11T01:36:45;1.00;99.90
18948;DHT22;9607;51.600;7.558;2023-03-11T01:39:12;1.00;99.90
18948;DHT22;9607;51.600;7.558;2023-03-11T01:41:40;1.00;99.90
18948;DHT22;9607;51.600;7.558;2023-03-11T01:44:10;1.00;99.90
18948;DHT22;9607;51.600;7.558;2023-03-11T01:49:39;1.00;99.90
18948;DHT22;9607;51.600;7.558;2023-03-11T01:52:07;1.00;99.90
18948;DHT22;9607;51.600;7.558;2023-03-11T01:54:36;1.00;99.90
18948;DHT22;9607;51.600;7.558;2023-03-11T01:57:09;1.00;99.90
18948;DHT22;9607;51.600;7.558;2023-03-11T01:59:38;1.00;99.90
18948;DHT22;9607;51.600;7.558;2023-03-11T02:02:10;1.00;99.90
18948;DHT22;9607;51.600;7.558;2023-03-11T02:04:41;1.00;99.90
18948;DHT22;9607;51.600;7.558;2023-03-11T02:07:08;1.00;99.90
18948;DHT22;9607;51.600;7.558;2023-03-11T02:09:35;1.00;99.90
18948;DHT22;9607;51.600;7.558;2023-03-11T02:12:03;1.00;99.90
18948;DHT22;9607;51.600;7.558;2023-03-11T02:14:34;1.00;99.90
18948;DHT22;9607;51.600;7.558;2023-03-11T02:17:02;1.00;99.90
18948;DHT22;9607;51.600;7.558;2023-03-11T02:19:36;1.00;99.90
18948;DHT22;9607;51.600;7.558;2023-03-11T02:22:07;1.00;99.90
18948;DHT22;9607;51.600;7.558;2023-03-11T02:24:39;1.00;99.90
18948;DHT22;9607;51.600;7.558;2023-03-11T02:27:12;1.00;99.90
18948;DHT22;9607;51.600;7.558;2023-03-11T02:29:40;0.90;99.90
18948;DHT22;9607;51.600;7.558;2023-03-11T02:32:08;1.00;99.90
18948;DHT22;9607;51.600;7.558;2023-03-11T02:34:38;1.00;99.90
18948;DHT22;9607;51.600;7.558;2023-03-11T02:37:09;1.00;99.90
18948;DHT22;9607;51.600;7.558;2023-03-11T02:39:38;1.00;99.90
18948;DHT22;9607;51.600;7.558;2023-03-11T02:42:08;1.00;99.90
18948;DHT22;9607;51.600;7.558;2023-03-11T02:44:38;0.90;99.90
18948;DHT22;9607;51.600;7.558;2023-03-11T02:47:08;0.90;99.90
18948;DHT22;9607;51.600;7.558;2023-03-11T02:49:35;0.90;99.90
18948;DHT22;9607;51.600;7.558;2023-03-11T02:52:02;0.90;99.90
18948;DHT22;9607;51.600;7.558;2023-03-11T02:54:29;0.90;99.90
18948;DHT22;9607;51.600;7.558;2023-03-11T02:56:56;0.90;99.90
18948;DHT22;9607;51.600;7.558;2023-03-11T02:59:23;0.90;99.90
18948;DHT22;9607;51.600;7.558;2023-03-11T03:01:51;0.80;99.90
18948;DHT22;9607;51.600;7.558;2023-03-11T03:04:18;0.80;99.90
18948;DHT22;9607;51.600;7.558;2023-03-11T03:06:45;0.80;99.90
18948;DHT22;9607;51.600;7.558;2023-03-11T03:09:12;0.80;99.90
18948;DHT22;9607;51.600;7.558;2023-03-11T03:11:39;0.80;99.90
18948;DHT22;9607;51.600;7.558;2023-03-11T03:14:06;0.70;99.90
18948;DHT22;9607;51.600;7.558;2023-03-11T03:16:33;0.80;99.90
18948;DHT22;9607;51.600;7.558;2023-03-11T03:19:01;0.80;99.90
18948;DHT22;9607;51.600;7.558;2023-03-11T03:21:29;0.80;99.90
18948;DHT22;9607;51.600;7.558;2023-03-11T03:23:55;0.90;99.90
18948;DHT22;9607;51.600;7.558;2023-03-11T03:26:22;0.90;99.90
18948;DHT22;9607;51.600;7.558;2023-03-11T03:28:49;0.90;99.90
18948;DHT22;9607;51.600;7.558;2023-03-11T03:31:16;0.90;99.90
18948;DHT22;9607;51.600;7.558;2023-03-11T03:33:43;0.90;99.90
18948;DHT22;9607;51.600;7.558;2023-03-11T03:36:13;0.90;99.90
18948;DHT22;9607;51.600;7.558;2023-03-11T03:38:40;0.90;99.90
18948;DHT22;9607;51.600;7.558;2023-03-11T03:41:08;0.90;99.90
18948;DHT22;9607;51.600;7.558;2023-03-11T03:43:35;0.90;99.90
18948;DHT22;9607;51.600;7.558;2023-03-11T03:46:03;0.90;99.90
18948;DHT22;9607;51.600;7.558;2023-03-11T03:48:30;0.90;99.90
18948;DHT22;9607;51.600;7.558;2023-03-11T03:51:01;0.90;99.90
18948;DHT22;9607;51.600;7.558;2023-03-11T03:53:30;0.90;99.90
18948;DHT22;9607;51.600;7.558;2023-03-11T03:55:56;0.90;99.90
18948;DHT22;9607;51.600;7.558;2023-03-11T03:58:23;1.00;99.90
18948;DHT22;9607;51.600;7.558;2023-03-11T04:00:54;0.90;99.90
18948;DHT22;9607;51.600;7.558;2023-03-11T04:03:21;0.90;99.90
18948;DHT22;9607;51.600;7.558;2023-03-11T04:05:48;0.90;99.90
18948;DHT22;9607;51.600;7.558;2023-03-11T04:08:15;0.90;99.90
18948;DHT22;9607;51.600;7.558;2023-03-11T04:10:43;0.90;99.90
18948;DHT22;9607;51.600;7.558;2023-03-11T04:13:10;0.90;99.90
18948;DHT22;9607;51.600;7.558;2023-03-11T04:15:37;0.90;99.90
18948;DHT22;9607;51.600;7.558;2023-03-11T04:18:04;0.90;99.90
18948;DHT22;9607;51.600;7.558;2023-03-11T04:20:31;0.90;99.90
18948;DHT22;9607;51.600;7.558;2023-03-11T04:22:58;0.90;99.90
18948;DHT22;9607;51.600;7.558;2023-03-11T04:25:24;0.90;99.90
18948;DHT22;9607;51.600;7.558;2023-03-11T04:27:52;0.90;99.90
18948;DHT22;9607;51.600;7.558;2023-03-11T04:30:19;0.90;99.90
18948;DHT22;9607;51.600;7.558;2023-03-11T04:32:46;0.90;99.90
18948;DHT22;9607;51.600;7.558;2023-03-11T04:35:13;0.90;99.90
18948;DHT22;9607;51.600;7.558;2023-03-11T04:37:39;0.90;99.90
18948;DHT22;9607;51.600;7.558;2023-03-11T04:40:09;0.90;99.90
18948;DHT22;9607;51.600;7.558;2023-03-11T04:42:36;0.80;99.90
18948;DHT22;9607;51.600;7.558;2023-03-11T04:45:06;0.80;99.90
18948;DHT22;9607;51.600;7.558;2023-03-11T04:47:35;0.80;99.90
18948;DHT22;9607;51.600;7.558;2023-03-11T04:50:02;0.80;99.90
18948;DHT22;9607;51.600;7.558;2023-03-11T04:52:29;0.80;99.90
18948;DHT22;9607;51.600;7.558;2023-03-11T04:54:55;0.80;99.90
18948;DHT22;9607;51.600;7.558;2023-03-11T04:57:22;0.80;99.90
18948;DHT22;9607;51.600;7.558;2023-03-11T04:59:49;0.80;99.90
18948;DHT22;9607;51.600;7.558;2023-03-11T05:02:17;0.80;99.90
18948;DHT22;9607;51.600;7.558;2023-03-11T05:04:44;0.80;99.90
18948;DHT22;9607;51.600;7.558;2023-03-11T05:07:10;0.80;99.90
18948;DHT22;9607;51.600;7.558;2023-03-11T05:09:37;0.80;99.90
18948;DHT22;9607;51.600;7.558;2023-03-11T05:12:04;0.80;99.90
18948;DHT22;9607;51.600;7.558;2023-03-11T05:14:32;0.80;99.90
18948;DHT22;9607;51.600;7.558;2023-03-11T05:16:58;0.80;99.90
18948;DHT22;9607;51.600;7.558;2023-03-11T05:19:26;0.80;99.90
18948;DHT22;9607;51.600;7.558;2023-03-11T05:21:56;0.80;99.90
18948;DHT22;9607;51.600;7.558;2023-03-11T05:24:23;0.80;99.90
18948;DHT22;9607;51.600;7.558;2023-03-11T05:26:51;0.80;99.90
18948;DHT22;9607;51.600;7.558;2023-03-11T05:29:17;0.80;99.90
18948;DHT22;9607;51.600;7.558;2023-03-11T05:31:44;0.80;99.90
18948;DHT22;9607;51.600;7.558;2023-03-11T05:34:12;0.80;99.90
18948;DHT22;9607;51.600;7.558;2023-03-11T05:36:40;0.80;99.90
18948;DHT22;9607;51.600;7.558;2023-03-11T05:39:07;0.70;99.90
18948;DHT22;9607;51.600;7.558;2023-03-11T05:41:34;0.70;99.90
18948;DHT22;9607;51.600;7.558;2023-03-11T05:44:01;0.70;99.90
18948;DHT22;9607;51.600;7.558;2023-03-11T05:46:29;0.70;99.90
18948;DHT22;9607;51.600;7.558;2023-03-11T05:48:58;0.70;99.90
18948;DHT22;9607;51.600;7.558;2023-03-11T05:51:25;0.80;99.90
18948;DHT22;9607;51.600;7.558;2023-03-11T05:53:53;0.80;99.90
18948;DHT22;9607;51.600;7.558;2023-03-11T05:56:22;0.70;99.90
18948;DHT22;9607;51.600;7.558;2023-03-11T05:58:50;0.70;99.90
18948;DHT22;9607;51.600;7.558;2023-03-11T06:01:18;0.80;99.90
18948;DHT22;9607;51.600;7.558;2023-03-11T06:03:45;0.80;99.90
18948;DHT22;9607;51.600;7.558;2023-03-11T06:06:12;0.80;99.90
18948;DHT22;9607;51.600;7.558;2023-03-11T06:08:39;0.80;99.90
18948;DHT22;9607;51.600;7.558;2023-03-11T06:11:11;0.80;99.90
18948;DHT22;9607;51.600;7.558;2023-03-11T06:13:38;0.70;99.90
18948;DHT22;9607;51.600;7.558;2023-03-11T06:16:06;0.70;99.90
18948;DHT22;9607;51.600;7.558;2023-03-11T06:18:33;0.70;99.90
18948;DHT22;9607;51.600;7.558;2023-03-11T06:21:01;0.70;99.90
18948;DHT22;9607;51.600;7.558;2023-03-11T06:23:29;0.70;99.90
18948;DHT22;9607;51.600;7.558;2023-03-11T06:25:56;0.70;99.90
18948;DHT22;9607;51.600;7.558;2023-03-11T06:28:26;0.70;99.90
18948;DHT22;9607;51.600;7.558;2023-03-11T06:30:55;0.70;99.90
18948;DHT22;9607;51.600;7.558;2023-03-11T06:33:22;0.70;99.90
18948;DHT22;9607;51.600;7.558;2023-03-11T06:35:56;0.70;99.90
18948;DHT22;9607;51.600;7.558;2023-03-11T06:38:23;0.70;99.90
18948;DHT22;9607;51.600;7.558;2023-03-11T06:40:50;0.60;99.90
18948;DHT22;9607;51.600;7.558;2023-03-11T06:43:17;0.60;99.90
18948;DHT22;9607;51.600;7.558;2023-03-11T06:45:47;0.60;99.90
18948;DHT22;9607;51.600;7.558;2023-03-11T06:48:14;0.60;99.90
18948;DHT22;9607;51.600;7.558;2023-03-11T06:50:40;0.60;99.90
18948;DHT22;9607;51.600;7.558;2023-03-11T06:53:07;0.50;99.90
18948;DHT22;9607;51.600;7.558;2023-03-11T06:55:35;0.60;99.90
18948;DHT22;9607;51.600;7.558;2023-03-11T06:58:02;0.50;99.90
18948;DHT22;9607;51.600;7.558;2023-03-11T07:00:29;0.50;99.90
18948;DHT22;9607;51.600;7.558;2023-03-11T07:02:57;0.50;99.90
18948;DHT22;9607;51.600;7.558;2023-03-11T07:05:23;0.50;99.90
18948;DHT22;9607;51.600;7.558;2023-03-11T07:07:52;0.60;99.90
18948;DHT22;9607;51.600;7.558;2023-03-11T07:10:19;0.60;99.90
18948;DHT22;9607;51.600;7.558;2023-03-11T07:12:46;0.60;99.90
18948;DHT22;9607;51.600;7.558;2023-03-11T07:15:12;0.70;99.90
18948;DHT22;9607;51.600;7.558;2023-03-11T07:17:40;0.70;99.90
18948;DHT22;9607;51.600;7.558;2023-03-11T07:20:10;0.80;99.90
18948;DHT22;9607;51.600;7.558;2023-03-11T07:22:37;0.80;99.90
18948;DHT22;9607;51.600;7.558;2023-03-11T07:25:04;0.90;99.90
18948;DHT22;9607;51.600;7.558;2023-03-11T07:27:31;0.90;99.90
18948;DHT22;9607;51.600;7.558;2023-03-11T07:29:59;0.90;99.90
18948;DHT22;9607;51.600;7.558;2023-03-11T07:32:26;1.00;99.90
18948;DHT22;9607;51.600;7.558;2023-03-11T07:34:53;1.00;99.90
18948;DHT22;9607;51.600;7.558;2023-03-11T07:37:21;1.00;99.90
18948;DHT22;9607;51.600;7.558;2023-03-11T07:39:48;1.00;99.90
18948;DHT22;9607;51.600;7.558;2023-03-11T07:42:15;1.10;99.90
18948;DHT22;9607;51.600;7.558;2023-03-11T07:44:42;1.10;99.90
18948;DHT22;9607;51.600;7.558;2023-03-11T07:47:09;1.20;99.90
18948;DHT22;9607;51.600;7.558;2023-03-11T07:49:36;1.20;99.90
18948;DHT22;9607;51.600;7.558;2023-03-11T07:52:03;1.20;99.90
18948;DHT22;9607;51.600;7.558;2023-03-11T07:54:31;1.30;99.90
18948;DHT22;9607;51.600;7.558;2023-03-11T07:56:58;1.30;99.90
18948;DHT22;9607;51.600;7.558;2023-03-11T07:59:24;1.30;99.90
18948;DHT22;9607;51.600;7.558;2023-03-11T08:01:51;1.30;99.90
18948;DHT22;9607;51.600;7.558;2023-03-11T08:04:18;1.30;99.90
18948;DHT22;9607;51.600;7.558;2023-03-11T08:06:46;1.40;99.90
18948;DHT22;9607;51.600;7.558;2023-03-11T08:09:13;1.40;99.90
18948;DHT22;9607;51.600;7.558;2023-03-11T08:11:41;1.40;99.90
18948;DHT22;9607;51.600;7.558;2023-03-11T08:14:08;1.50;99.90
18948;DHT22;9607;51.600;7.558;2023-03-11T08:16:35;1.50;99.90
18948;DHT22;9607;51.600;7.558;2023-03-11T08:19:01;1.50;99.90
18948;DHT22;9607;51.600;7.558;2023-03-11T08:21:29;1.60;99.90
18948;DHT22;9607;51.600;7.558;2023-03-11T08:23:58;1.60;99.90
18948;DHT22;9607;51.600;7.558;2023-03-11T08:26:25;1.70;99.90
18948;DHT22;9607;51.600;7.558;2023-03-11T08:28:53;1.70;99.90
18948;DHT22;9607;51.600;7.558;2023-03-11T08:31:21;1.70;99.90
18948;DHT22;9607;51.600;7.558;2023-03-11T08:33:51;1.80;99.90
18948;DHT22;9607;51.600;7.558;2023-03-11T08:36:18;1.80;99.90
18948;DHT22;9607;51.600;7.558;2023-03-11T08:38:46;1.90;99.90
18948;DHT22;9607;51.600;7.558;2023-03-11T08:41:13;1.90;99.90
18948;DHT22;9607;51.600;7.558;2023-03-11T08:43:41;2.00;99.90
18948;DHT22;9607;51.600;7.558;2023-03-11T08:46:14;2.00;99.90
18948;DHT22;9607;51.600;7.558;2023-03-11T08:48:41;2.00;99.90
18948;DHT22;9607;51.600;7.558;2023-03-11T08:51:09;2.10;99.90
18948;DHT22;9607;51.600;7.558;2023-03-11T08:53:36;2.10;99.90
18948;DHT22;9607;51.600;7.558;2023-03-11T08:56:04;2.20;99.90
18948;DHT22;9607;51.600;7.558;2023-03-11T08:58:31;2.20;99.90
18948;DHT22;9607;51.600;7.558;2023-03-11T09:00:57;2.20;99.90
18948;DHT22;9607;51.600;7.558;2023-03-11T09:03:26;2.30;99.90
18948;DHT22;9607;51.600;7.558;2023-03-11T09:05:56;2.30;99.90
18948;DHT22;9607;51.600;7.558;2023-03-11T09:08:22;2.40;99.90
18948;DHT22;9607;51.600;7.558;2023-03-11T09:10:49;2.40;99.90
18948;DHT22;9607;51.600;7.558;2023-03-11T09:13:16;2.50;99.90
18948;DHT22;9607;51.600;7.558;2023-03-11T09:15:43;2.50;99.90
18948;DHT22;9607;51.600;7.558;2023-03-11T09:18:13;2.50;99.90
18948;DHT22;9607;51.600;7.558;2023-03-11T09:20:42;2.60;99.90
18948;DHT22;9607;51.600;7.558;2023-03-11T09:23:11;2.60;99.90
18948;DHT22;9607;51.600;7.558;2023-03-11T09:25:38;2.60;99.90
18948;DHT22;9607;51.600;7.558;2023-03-11T09:28:05;2.70;99.90
18948;DHT22;9607;51.600;7.558;2023-03-11T09:30:32;2.70;99.90
18948;DHT22;9607;51.600;7.558;2023-03-11T09:32:59;2.80;99.90
18948;DHT22;9607;51.600;7.558;2023-03-11T09:35:26;2.90;99.90
18948;DHT22;9607;51.600;7.558;2023-03-11T09:37:54;2.90;99.90
18948;DHT22;9607;51.600;7.558;2023-03-11T09:40:22;3.00;99.90
18948;DHT22;9607;51.600;7.558;2023-03-11T09:42:56;3.00;99.90
18948;DHT22;9607;51.600;7.558;2023-03-11T09:45:29;3.10;99.90
18948;DHT22;9607;51.600;7.558;2023-03-11T09:48:12;3.20;99.90
18948;DHT22;9607;51.600;7.558;2023-03-11T09:50:45;3.20;99.90
18948;DHT22;9607;51.600;7.558;2023-03-11T09:53:24;3.30;99.90
18948;DHT22;9607;51.600;7.558;2023-03-11T09:55:54;3.20;99.90
18948;DHT22;9607;51.600;7.558;2023-03-11T09:58:29;3.30;99.90
18948;DHT22;9607;51.600;7.558;2023-03-11T10:00:57;3.30;99.90
18948;DHT22;9607;51.600;7.558;2023-03-11T10:03:28;3.40;99.90
18948;DHT22;9607;51.600;7.558;2023-03-11T10:06:02;3.60;99.90
18948;DHT22;9607;51.600;7.558;2023-03-11T10:08:37;3.70;99.90
18948;DHT22;9607;51.600;7.558;2023-03-11T10:11:19;3.90;99.90
18948;DHT22;9607;51.600;7.558;2023-03-11T10:13:55;3.90;99.90
18948;DHT22;9607;51.600;7.558;2023-03-11T10:16:31;4.00;99.90
18948;DHT22;9607;51.600;7.558;2023-03-11T10:19:06;4.00;99.90
18948;DHT22;9607;51.600;7.558;2023-03-11T10:21:43;4.00;99.90
18948;DHT22;9607;51.600;7.558;2023-03-11T10:24:37;4.10;99.90
18948;DHT22;9607;51.600;7.558;2023-03-11T10:27:10;4.10;99.90
18948;DHT22;9607;51.600;7.558;2023-03-11T10:29:45;4.10;99.90
18948;DHT22;9607;51.600;7.558;2023-03-11T10:32:17;4.10;99.90
18948;DHT22;9607;51.600;7.558;2023-03-11T10:34:48;4.10;99.90
18948;DHT22;9607;51.600;7.558;2023-03-11T10:37:20;4.20;99.90
18948;DHT22;9607;51.600;7.558;2023-03-11T10:39:50;4.30;99.90
18948;DHT22;9607;51.600;7.558;2023-03-11T10:42:20;4.40;99.90
18948;DHT22;9607;51.600;7.558;2023-03-11T10:44:48;4.40;99.90
18948;DHT22;9607;51.600;7.558;2023-03-11T10:47:27;4.40;99.90
18948;DHT22;9607;51.600;7.558;2023-03-11T10:56:54;4.80;99.90
18948;DHT22;9607;51.600;7.558;2023-03-11T10:59:49;4.80;99.90
18948;DHT22;9607;51.600;7.558;2023-03-11T11:02:49;4.90;99.90
18948;DHT22;9607;51.600;7.558;2023-03-11T11:23:25;5.20;99.90
18948;DHT22;9607;51.600;7.558;2023-03-11T11:25:57;5.20;99.90
18948;DHT22;9607;51.600;7.558;2023-03-11T11:28:25;5.30;99.90
18948;DHT22;9607;51.600;7.558;2023-03-11T11:30:54;5.40;99.90
18948;DHT22;9607;51.600;7.558;2023-03-11T11:33:23;5.60;99.90
18948;DHT22;9607;51.600;7.558;2023-03-11T11:35:52;5.60;99.90
18948;DHT22;9607;51.600;7.558;2023-03-11T11:38:21;5.70;99.90
18948;DHT22;9607;51.600;7.558;2023-03-11T11:40:52;5.70;99.90
18948;DHT22;9607;51.600;7.558;2023-03-11T11:43:26;5.60;99.90
18948;DHT22;9607;51.600;7.558;2023-03-11T11:46:00;5.60;99.90
18948;DHT22;9607;51.600;7.558;2023-03-11T11:48:32;5.50;99.90
18948;DHT22;9607;51.600;7.558;2023-03-11T11:51:05;5.50;99.90
18948;DHT22;9607;51.600;7.558;2023-03-11T11:53:38;5.60;99.90
18948;DHT22;9607;51.600;7.558;2023-03-11T11:56:08;5.80;99.90
18948;DHT22;9607;51.600;7.558;2023-03-11T11:58:35;6.00;99.90
18948;DHT22;9607;51.600;7.558;2023-03-11T12:01:12;6.30;99.90
18948;DHT22;9607;51.600;7.558;2023-03-11T12:04:02;6.50;99.90
18948;DHT22;9607;51.600;7.558;2023-03-11T12:06:38;6.70;99.90
18948;DHT22;9607;51.600;7.558;2023-03-11T12:09:13;6.90;99.90
18948;DHT22;9607;51.600;7.558;2023-03-11T12:11:48;7.00;99.90
18948;DHT22;9607;51.600;7.558;2023-03-11T12:14:20;7.10;99.90
18948;DHT22;9607;51.600;7.558;2023-03-11T12:16:55;7.10;99.90
18948;DHT22;9607;51.600;7.558;2023-03-11T12:19:33;7.20;99.90
18948;DHT22;9607;51.600;7.558;2023-03-11T12:25:25;7.50;99.90
18948;DHT22;9607;51.600;7.558;2023-03-11T12:27:59;7.50;99.90
18948;DHT22;9607;51.600;7.558;2023-03-11T12:30:30;7.50;99.90
18948;DHT22;9607;51.600;7.558;2023-03-11T12:33:00;7.40;99.90
18948;DHT22;9607;51.600;7.558;2023-03-11T12:35:30;7.50;99.90
18948;DHT22;9607;51.600;7.558;2023-03-11T12:38:04;8.00;99.90
18948;DHT22;9607;51.600;7.558;2023-03-11T12:40:55;8.70;99.90
18948;DHT22;9607;51.600;7.558;2023-03-11T12:43:26;9.30;99.90
18948;DHT22;9607;51.600;7.558;2023-03-11T12:45:55;9.90;99.90
18948;DHT22;9607;51.600;7.558;2023-03-11T12:48:30;10.60;99.90
18948;DHT22;9607;51.600;7.558;2023-03-11T12:50:58;11.10;99.90
18948;DHT22;9607;51.600;7.558;2023-03-11T12:53:40;11.60;99.90
18948;DHT22;9607;51.600;7.558;2023-03-11T12:56:15;12.00;99.90
18948;DHT22;9607;51.600;7.558;2023-03-11T12:59:11;12.40;99.90
18948;DHT22;9607;51.600;7.558;2023-03-11T13:01:50;12.40;99.90
18948;DHT22;9607;51.600;7.558;2023-03-11T13:04:43;12.10;99.90
18948;DHT22;9607;51.600;7.558;2023-03-11T13:07:39;11.80;99.90
18948;DHT22;9607;51.600;7.558;2023-03-11T13:10:17;11.90;99.90
18948;DHT22;9607;51.600;7.558;2023-03-11T13:12:46;12.30;99.90
18948;DHT22;9607;51.600;7.558;2023-03-11T13:15:36;12.60;99.90
18948;DHT22;9607;51.600;7.558;2023-03-11T13:18:17;12.50;99.90
18948;DHT22;9607;51.600;7.558;2023-03-11T13:20:55;12.30;99.90
18948;DHT22;9607;51.600;7.558;2023-03-11T13:23:26;12.20;99.90
18948;DHT22;9607;51.600;7.558;2023-03-11T13:26:33;11.70;99.90
18948;DHT22;9607;51.600;7.558;2023-03-11T13:29:49;11.10;98.00
18948;DHT22;9607;51.600;7.558;2023-03-11T13:32:34;10.70;99.90
18948;DHT22;9607;51.600;7.558;2023-03-11T13:35:12;10.20;99.90
18948;DHT22;9607;51.600;7.558;2023-03-11T13:37:55;9.80;99.90
18948;DHT22;9607;51.600;7.558;2023-03-11T13:40:30;10.00;99.90
18948;DHT22;9607;51.600;7.558;2023-03-11T13:43:01;9.90;99.90
18948;DHT22;9607;51.600;7.558;2023-03-11T13:45:30;9.70;99.90
18948;DHT22;9607;51.600;7.558;2023-03-11T13:48:03;9.70;99.90
18948;DHT22;9607;51.600;7.558;2023-03-11T13:50:34;9.50;99.90
18948;DHT22;9607;51.600;7.558;2023-03-11T13:53:06;9.50;99.90
18948;DHT22;9607;51.600;7.558;2023-03-11T13:55:37;10.20;99.90
18948;DHT22;9607;51.600;7.558;2023-03-11T13:58:14;11.00;99.90
18948;DHT22;9607;51.600;7.558;2023-03-11T14:00:47;11.60;99.90
18948;DHT22;9607;51.600;7.558;2023-03-11T14:03:16;12.00;99.90
18948;DHT22;9607;51.600;7.558;2023-03-11T14:05:47;12.40;99.90
18948;DHT22;9607;51.600;7.558;2023-03-11T14:08:20;12.30;93.10
18948;DHT22;9607;51.600;7.558;2023-03-11T14:10:51;12.20;91.70
18948;DHT22;9607;51.600;7.558;2023-03-11T14:13:19;12.00;92.00
18948;DHT22;9607;51.600;7.558;2023-03-11T14:15:51;11.80;91.20
18948;DHT22;9607;51.600;7.558;2023-03-11T14:18:32;11.70;91.90
18948;DHT22;9607;51.600;7.558;2023-03-11T14:21:00;11.40;93.00
18948;DHT22;9607;51.600;7.558;2023-03-11T14:23:29;11.10;88.00
18948;DHT22;9607;51.600;7.558;2023-03-11T14:26:04;10.90;88.10
18948;DHT22;9607;51.600;7.558;2023-03-11T14:28:34;10.60;91.50
18948;DHT22;9607;51.600;7.558;2023-03-11T14:31:02;10.50;97.00
18948;DHT22;9607;51.600;7.558;2023-03-11T14:33:30;10.60;99.90
18948;DHT22;9607;51.600;7.558;2023-03-11T14:35:59;10.80;99.90
18948;DHT22;9607;51.600;7.558;2023-03-11T14:38:28;10.80;99.90
18948;DHT22;9607;51.600;7.558;2023-03-11T14:40:56;10.80;99.90
18948;DHT22;9607;51.600;7.558;2023-03-11T14:43:23;10.50;99.90
18948;DHT22;9607;51.600;7.558;2023-03-11T14:45:51;10.30;99.90
18948;DHT22;9607;51.600;7.558;2023-03-11T14:48:22;10.40;99.90
18948;DHT22;9607;51.600;7.558;2023-03-11T14:50:52;10.40;95.70
18948;DHT22;9607;51.600;7.558;2023-03-11T14:53:22;10.60;99.90
18948;DHT22;9607;51.600;7.558;2023-03-11T14:55:54;11.30;99.90
18948;DHT22;9607;51.600;7.558;2023-03-11T14:58:27;12.10;99.90
18948;DHT22;9607;51.600;7.558;2023-03-11T15:00:58;12.70;99.90
18948;DHT22;9607;51.600;7.558;2023-03-11T15:03:27;13.20;99.90
18948;DHT22;9607;51.600;7.558;2023-03-11T15:05:58;13.20;99.90
18948;DHT22;9607;51.600;7.558;2023-03-11T15:08:30;13.40;99.90
18948;DHT22;9607;51.600;7.558;2023-03-11T15:11:16;13.50;97.10
18948;DHT22;9607;51.600;7.558;2023-03-11T15:13:45;13.50;90.90
18948;DHT22;9607;51.600;7.558;2023-03-11T15:16:23;13.60;99.40
18948;DHT22;9607;51.600;7.558;2023-03-11T15:18:51;13.80;96.80
18948;DHT22;9607;51.600;7.558;2023-03-11T15:21:21;13.80;99.90
18948;DHT22;9607;51.600;7.558;2023-03-11T15:23:51;13.50;77.20
18948;DHT22;9607;51.600;7.558;2023-03-11T15:26:20;13.10;88.20
18948;DHT22;9607;51.600;7.558;2023-03-11T15:28:53;12.70;85.30
18948;DHT22;9607;51.600;7.558;2023-03-11T15:31:34;12.40;92.10
18948;DHT22;9607;51.600;7.558;2023-03-11T15:34:21;12.00;96.60
18948;DHT22;9607;51.600;7.558;2023-03-11T15:36:57;11.70;95.20
18948;DHT22;9607;51.600;7.558;2023-03-11T15:39:37;11.60;97.90
18948;DHT22;9607;51.600;7.558;2023-03-11T15:42:12;11.70;99.80
18948;DHT22;9607;51.600;7.558;2023-03-11T15:44:41;11.80;99.90
18948;DHT22;9607;51.600;7.558;2023-03-11T15:47:13;11.90;99.90
18948;DHT22;9607;51.600;7.558;2023-03-11T15:49:40;11.70;81.70
18948;DHT22;9607;51.600;7.558;2023-03-11T15:52:09;11.80;78.30
18948;DHT22;9607;51.600;7.558;2023-03-11T15:54:36;11.70;76.00
18948;DHT22;9607;51.600;7.558;2023-03-11T15:57:05;11.70;88.20
18948;DHT22;9607;51.600;7.558;2023-03-11T15:59:34;11.60;84.90
18948;DHT22;9607;51.600;7.558;2023-03-11T16:02:03;11.40;77.10
18948;DHT22;9607;51.600;7.558;2023-03-11T16:04:30;11.20;84.10
18948;DHT22;9607;51.600;7.558;2023-03-11T16:06:57;11.00;90.10
18948;DHT22;9607;51.600;7.558;2023-03-11T16:09:25;11.10;92.40
18948;DHT22;9607;51.600;7.558;2023-03-11T16:11:52;11.20;77.50
18948;DHT22;9607;51.600;7.558;2023-03-11T16:14:19;11.30;67.70
18948;DHT22;9607;51.600;7.558;2023-03-11T16:16:46;11.10;73.80
18948;DHT22;9607;51.600;7.558;2023-03-11T16:19:13;11.00;93.40
18948;DHT22;9607;51.600;7.558;2023-03-11T16:21:42;10.80;97.80
18948;DHT22;9607;51.600;7.558;2023-03-11T16:24:17;10.50;91.60
18948;DHT22;9607;51.600;7.558;2023-03-11T16:26:46;10.20;94.60
18948;DHT22;9607;51.600;7.558;2023-03-11T16:29:13;9.90;97.70
18948;DHT22;9607;51.600;7.558;2023-03-11T16:31:40;9.70;99.90
18948;DHT22;9607;51.600;7.558;2023-03-11T16:34:07;9.60;99.90
18948;DHT22;9607;51.600;7.558;2023-03-11T16:36:34;9.40;99.90
18948;DHT22;9607;51.600;7.558;2023-03-11T16:39:01;9.30;99.90
18948;DHT22;9607;51.600;7.558;2023-03-11T16:41:28;9.10;99.90
18948;DHT22;9607;51.600;7.558;2023-03-11T16:43:56;8.90;93.90
18948;DHT22;9607;51.600;7.558;2023-03-11T16:46:23;8.60;91.20